Time;durP1;ratioP1;P1;durP2;ratioP2;P2;SDS_P1;SDS_P2;PMS_P1;PMS_P2;Temp;Humidity;BMP_temperature;BMP_pressure;BME280_temperature;BME280_humidity;BME280_pressure;Samples;Min_cycle;Max_cycle;Signal;HPM_P1;HPM_P2
2021/04/07 00:00:12;;;;;;;0.50;0.43;;;20.00;45.80;;;;;;7709056;23;20005;-64
2021/04/07 00:03:12;;;;;;;0.57;0.40;;;20.00;45.80;;;;;;7709460;23;20017;-64
2021/04/07 00:06:13;;;;;;;0.65;0.32;;;20.00;45.80;;;;;;7709023;23;20007;-64
2021/04/07 00:09:13;;;;;;;0.40;0.35;;;20.00;45.80;;;;;;7709980;23;20009;-65
2021/04/07 00:12:14;;;;;;;1.35;0.50;;;20.00;45.70;;;;;;7708640;23;20019;-64
2021/04/07 00:15:21;;;;;;;1.10;0.43;;;20.00;45.70;;;;;;7709373;23;20005;-64
2021/04/07 00:18:21;;;;;;;0.50;0.50;;;20.00;45.70;;;;;;7709274;23;20445;-63
2021/04/07 00:21:22;;;;;;;0.30;0.30;;;20.00;45.70;;;;;;7709151;23;20004;-63
2021/04/07 00:24:22;;;;;;;0.77;0.40;;;20.00;45.80;;;;;;7709374;23;20008;-65
2021/04/07 00:27:27;;;;;;;1.20;0.40;;;20.00;45.70;;;;;;7708725;23;20466;-64
2021/04/07 00:30:29;;;;;;;;;;;20.00;45.80;;;;;;7709541;23;20012;-63
2021/04/07 00:33:30;;;;;;;1.83;0.73;;;20.00;45.70;;;;;;7709049;23;19900;-64
2021/04/07 00:36:30;;;;;;;0.85;0.50;;;20.00;45.70;;;;;;7709008;23;20012;-65
2021/04/07 00:39:30;;;;;;;0.40;0.30;;;20.00;45.70;;;;;;7708700;23;20008;-64
2021/04/07 00:42:38;;;;;;;0.52;0.43;;;20.00;45.70;;;;;;7709986;23;20071;-64
2021/04/07 00:45:39;;;;;;;0.60;0.40;;;20.00;45.80;;;;;;7711255;23;20013;-64
2021/04/07 00:48:39;;;;;;;1.25;0.40;;;20.00;45.80;;;;;;7710774;23;20067;-64
2021/04/07 00:51:43;;;;;;;0.85;0.45;;;20.00;46.50;;;;;;7710977;23;20012;-64
2021/04/07 00:54:44;;;;;;;0.38;0.38;;;20.00;45.70;;;;;;7709278;23;20083;-64
2021/04/07 00:57:46;;;;;;;0.40;0.40;;;20.00;45.80;;;;;;7710763;23;20031;-63
2021/04/07 01:00:46;;;;;;;0.50;0.30;;;20.00;45.70;;;;;;7711065;23;20011;-64
2021/04/07 01:03:47;;;;;;;1.00;0.40;;;20.00;45.80;;;;;;7711025;23;20005;-64
2021/04/07 01:06:48;;;;;;;0.88;0.40;;;20.00;45.80;;;;;;7711008;23;20204;-64
2021/04/07 01:09:48;;;;;;;0.30;0.30;;;20.00;45.70;;;;;;7711811;23;20333;-64
2021/04/07 01:12:50;;;;;;;0.30;0.30;;;20.00;45.70;;;;;;7710735;23;20016;-64
2021/04/07 01:15:50;;;;;;;0.68;0.32;;;20.00;45.70;;;;;;7711155;23;20008;-64
2021/04/07 01:18:51;;;;;;;0.60;0.40;;;20.00;45.80;;;;;;7710680;23;20008;-65
2021/04/07 01:21:55;;;;;;;0.55;0.40;;;20.00;45.80;;;;;;7710812;23;19997;-64
2021/04/07 01:24:56;;;;;;;0.77;0.50;;;20.00;45.70;;;;;;7711075;23;20008;-64
2021/04/07 01:27:57;;;;;;;0.32;0.30;;;20.00;45.70;;;;;;7710255;23;20028;-64
2021/04/07 01:30:59;;;;;;;0.52;0.35;;;20.00;45.70;;;;;;7710798;23;20340;-64
2021/04/07 01:33:59;;;;;;;0.50;0.30;;;20.00;45.70;;;;;;7710679;23;20063;-64
2021/04/07 01:37:00;;;;;;;0.65;0.35;;;20.00;45.70;;;;;;7710858;23;20012;-64
2021/04/07 01:40:14;;;;;;;0.57;0.47;;;20.00;45.70;;;;;;7710110;23;20004;-64
2021/04/07 01:43:17;;;;;;;1.48;0.50;;;20.00;45.70;;;;;;7710609;23;20036;-64
2021/04/07 01:46:17;;;;;;;1.20;0.55;;;20.00;45.70;;;;;;7710463;23;20360;-65
2021/04/07 01:49:18;;;;;;;0.40;0.40;;;20.00;45.70;;;;;;7710513;23;20071;-65
2021/04/07 01:52:19;;;;;;;0.68;0.45;;;20.00;45.80;;;;;;7710449;23;20080;-64
2021/04/07 01:55:19;;;;;;;0.90;0.40;;;20.00;45.80;;;;;;7709932;23;20004;-64
2021/04/07 01:58:20;;;;;;;0.32;0.22;;;19.90;45.70;;;;;;7710400;23;20096;-64
2021/04/07 02:01:21;;;;;;;0.32;0.32;;;20.00;45.80;;;;;;7709870;23;20491;-64
2021/04/07 02:04:22;;;;;;;0.80;0.47;;;20.00;45.80;;;;;;7710456;23;20008;-64
2021/04/07 02:07:22;;;;;;;0.63;0.40;;;19.90;45.70;;;;;;7709987;23;20016;-64
2021/04/07 02:10:23;;;;;;;1.10;0.47;;;19.90;45.70;;;;;;7710485;23;20012;-64
2021/04/07 02:13:23;;;;;;;0.75;0.50;;;19.90;45.70;;;;;;7709987;23;20005;-64
2021/04/07 02:16:24;;;;;;;0.75;0.55;;;20.00;45.80;;;;;;7710342;23;20046;-64
2021/04/07 02:19:26;;;;;;;1.23;0.52;;;20.00;45.70;;;;;;7709730;23;20375;-64
2021/04/07 02:22:27;;;;;;;0.50;0.32;;;20.00;45.70;;;;;;7709963;23;20015;-64
2021/04/07 02:25:27;;;;;;;1.05;0.50;;;20.00;45.70;;;;;;7709990;23;20008;-63
2021/04/07 02:28:28;;;;;;;0.82;0.40;;;20.00;45.70;;;;;;7709844;23;20000;-63
2021/04/07 02:31:28;;;;;;;1.63;0.57;;;19.90;45.70;;;;;;7709843;23;20017;-64
2021/04/07 02:34:29;;;;;;;1.00;0.40;;;19.90;45.70;;;;;;7709941;23;20000;-64
2021/04/07 02:37:29;;;;;;;0.88;0.35;;;19.90;45.70;;;;;;7709797;23;20617;-64
2021/04/07 02:40:30;;;;;;;1.15;0.40;;;19.90;45.70;;;;;;7710045;23;20316;-64
2021/04/07 02:43:30;;;;;;;0.85;0.40;;;19.90;45.70;;;;;;7709882;23;20000;-64
2021/04/07 02:46:32;;;;;;;0.43;0.40;;;19.90;45.70;;;;;;7709838;23;20004;-64
2021/04/07 02:49:33;;;;;;;1.48;0.55;;;19.90;45.70;;;;;;7709412;23;20028;-63
2021/04/07 02:52:34;;;;;;;1.08;0.52;;;19.90;45.70;;;;;;7709633;23;20019;-64
2021/04/07 02:55:34;;;;;;;0.93;0.40;;;19.90;45.70;;;;;;7710002;23;20001;-63
2021/04/07 02:58:35;;;;;;;0.50;0.38;;;19.90;45.70;;;;;;7710235;23;20322;-64
2021/04/07 03:01:36;;;;;;;1.20;0.50;;;19.90;45.70;;;;;;7709200;23;20578;-64
2021/04/07 03:04:36;;;;;;;0.95;0.50;;;19.90;46.40;;;;;;7709283;23;20015;-63
2021/04/07 03:07:39;;;;;;;0.73;0.40;;;19.90;45.60;;;;;;7709387;23;20058;-64
2021/04/07 03:10:40;;;;;;;0.80;0.40;;;19.90;45.70;;;;;;7709832;23;20013;-64
2021/04/07 03:13:40;;;;;;;0.43;0.40;;;19.90;45.70;;;;;;7709392;23;20325;-64
2021/04/07 03:16:41;;;;;;;0.65;0.40;;;19.90;45.70;;;;;;7709333;23;20305;-64
2021/04/07 03:19:42;;;;;;;0.50;0.30;;;19.90;45.70;;;;;;7709045;23;20015;-64
2021/04/07 03:22:42;;;;;;;0.88;0.57;;;19.90;45.70;;;;;;7709369;23;20301;-64
2021/04/07 03:25:43;;;;;;;0.70;0.40;;;19.90;45.70;;;;;;7709499;23;20332;-64
2021/04/07 03:28:43;;;;;;;0.70;0.40;;;19.90;45.70;;;;;;7709481;23;20001;-64
2021/04/07 03:31:44;;;;;;;0.77;0.40;;;19.90;45.70;;;;;;7709055;23;20086;-64
2021/04/07 03:34:44;;;;;;;1.48;0.50;;;19.90;45.70;;;;;;7709698;23;20309;-63
2021/04/07 03:37:45;;;;;;;1.25;0.50;;;19.90;45.70;;;;;;7709347;23;20075;-64
2021/04/07 03:40:46;;;;;;;0.63;0.40;;;19.90;45.80;;;;;;7708986;23;20202;-64
2021/04/07 03:43:47;;;;;;;1.17;0.73;;;19.90;45.80;;;;;;7710009;23;20016;-64
2021/04/07 03:46:51;;;;;;;0.80;0.47;;;19.90;45.70;;;;;;7709457;23;20448;-63
2021/04/07 03:49:52;;;;;;;0.55;0.32;;;19.90;45.80;;;;;;7708704;23;20028;-64
2021/04/07 03:52:53;;;;;;;0.38;0.35;;;19.90;45.70;;;;;;7709576;23;20444;-64
2021/04/07 03:55:56;;;;;;;0.90;0.50;;;19.90;45.80;;;;;;7708788;23;20040;-64
2021/04/07 03:58:56;;;;;;;0.50;0.38;;;19.90;45.70;;;;;;7709249;23;20348;-64
2021/04/07 04:01:57;;;;;;;1.33;0.60;;;19.90;45.70;;;;;;7708842;23;20008;-64
2021/04/07 04:04:57;;;;;;;0.55;0.45;;;19.90;45.70;;;;;;7709335;23;20012;-64
2021/04/07 04:07:57;;;;;;;0.30;0.30;;;19.90;45.70;;;;;;7709027;23;20037;-65
2021/04/07 04:10:59;;;;;;;1.02;0.50;;;19.90;45.70;;;;;;7708929;23;20062;-64
2021/04/07 04:13:59;;;;;;;0.63;0.45;;;19.90;45.70;;;;;;7709084;23;20004;-64
2021/04/07 04:16:59;;;;;;;0.68;0.45;;;19.90;45.60;;;;;;7709335;23;20007;-64
2021/04/07 04:20:00;;;;;;;1.10;0.50;;;19.90;45.60;;;;;;7711932;23;20062;-64
2021/04/07 04:23:01;;;;;;;0.98;0.70;;;19.90;45.60;;;;;;7711568;23;20126;-64
2021/04/07 04:26:01;;;;;;;0.52;0.40;;;19.90;45.60;;;;;;7711429;23;20433;-64
2021/04/07 04:29:02;;;;;;;1.38;0.70;;;19.90;45.50;;;;;;7711216;23;20013;-64
2021/04/07 04:32:03;;;;;;;0.70;0.52;;;19.90;45.50;;;;;;7711273;23;20091;-64
2021/04/07 04:35:05;;;;;;;0.88;0.50;;;19.90;45.40;;;;;;7711224;23;20305;-64
2021/04/07 04:38:06;;;;;;;0.77;0.50;;;19.90;45.40;;;;;;7710993;23;20009;-65
2021/04/07 04:41:06;;;;;;;2.13;0.75;;;19.90;45.40;;;;;;7711129;23;20364;-64
2021/04/07 04:44:07;;;;;;;1.48;0.70;;;20.00;45.40;;;;;;7711325;23;20289;-64
2021/04/07 04:47:07;;;;;;;1.13;0.70;;;20.00;45.40;;;;;;7711163;23;20011;-64
2021/04/07 04:50:10;;;;;;;1.02;0.80;;;20.00;45.30;;;;;;7710737;23;20020;-64
2021/04/07 04:53:10;;;;;;;1.50;0.73;;;20.00;45.30;;;;;;7711072;23;20527;-64
2021/04/07 04:56:11;;;;;;;1.20;0.65;;;20.00;45.30;;;;;;7711758;23;20004;-64
2021/04/07 05:03:12;;;;;;;2.08;0.93;;;20.00;45.30;;;;;;7710630;23;20000;-64
2021/04/07 05:06:12;;;;;;;1.55;0.70;;;20.00;45.30;;;;;;7711299;23;20051;-63
2021/04/07 05:09:13;;;;;;;2.10;0.88;;;20.00;45.60;;;;;;7710749;23;20129;-64
2021/04/07 05:12:14;;;;;;;1.25;0.80;;;20.00;45.10;;;;;;7710652;23;20047;-64
2021/04/07 05:15:15;;;;;;;4.00;0.95;;;20.00;45.20;;;;;;7710860;23;20035;-64
2021/04/07 05:18:17;;;;;;;0.88;0.68;;;20.00;45.20;;;;;;7710497;23;20001;-64
2021/04/07 05:21:18;;;;;;;0.57;0.57;;;20.00;45.20;;;;;;7711127;23;20066;-64
2021/04/07 05:24:18;;;;;;;1.65;1.10;;;20.00;45.20;;;;;;7710736;23;20005;-64
2021/04/07 05:27:19;;;;;;;1.73;1.05;;;20.00;45.10;;;;;;7710124;23;20004;-64
2021/04/07 05:30:20;;;;;;;1.38;0.70;;;20.00;45.20;;;;;;7710725;23;20009;-64
2021/04/07 05:33:22;;;;;;;2.90;0.98;;;20.00;45.20;;;;;;7699537;23;20012;-64
2021/04/07 05:36:22;;;;;;;1.13;1.00;;;20.00;45.10;;;;;;7708000;23;20401;-64
2021/04/07 05:39:23;;;;;;;3.45;1.10;;;20.00;45.20;;;;;;7707979;23;20079;-64
2021/04/07 05:42:24;;;;;;;1.65;0.70;;;20.00;45.10;;;;;;7708618;23;20009;-64
2021/04/07 05:45:24;;;;;;;2.83;1.10;;;20.00;45.20;;;;;;7706259;23;20348;-64
2021/04/07 05:48:25;;;;;;;1.58;0.80;;;20.00;45.20;;;;;;7708276;23;20017;-64
2021/04/07 05:51:25;;;;;;;2.03;0.90;;;20.00;45.20;;;;;;7709085;23;20317;-64
2021/04/07 05:54:26;;;;;;;4.82;1.00;;;20.00;45.20;;;;;;7709258;23;20298;-64
2021/04/07 05:57:26;;;;;;;1.65;1.02;;;20.00;45.20;;;;;;7710406;23;20007;-64
2021/04/07 06:00:27;;;;;;;3.17;1.13;;;20.00;45.30;;;;;;7709074;23;20400;-64
2021/04/07 06:03:28;;;;;;;1.70;0.95;;;20.00;45.40;;;;;;7710846;23;20040;-64
2021/04/07 06:06:29;;;;;;;2.40;1.05;;;20.00;45.20;;;;;;7710529;23;20032;-64
2021/04/07 06:09:30;;;;;;;2.28;0.90;;;20.00;45.40;;;;;;7709403;23;20005;-64
2021/04/07 06:12:30;;;;;;;2.17;1.15;;;20.00;45.30;;;;;;7709976;23;20447;-64
2021/04/07 06:15:31;;;;;;;2.30;1.20;;;20.00;45.20;;;;;;7710751;23;20011;-64
2021/04/07 06:18:32;;;;;;;1.20;1.00;;;20.00;45.40;;;;;;7710593;23;20062;-64
2021/04/07 06:21:33;;;;;;;2.08;1.10;;;20.00;45.40;;;;;;7710978;23;20416;-64
2021/04/07 06:24:33;;;;;;;1.55;1.15;;;20.00;45.40;;;;;;7711894;23;20466;-64
2021/04/07 06:27:34;;;;;;;1.80;0.90;;;20.00;45.40;;;;;;7711941;23;20009;-64
2021/04/07 06:33:42;;;;;;;2.25;1.15;;;20.00;45.40;;;;;;7712362;23;20032;-64
2021/04/07 06:36:42;;;;;;;2.53;1.20;;;20.00;45.20;;;;;;7712369;23;20009;-65
2021/04/07 06:39:43;;;;;;;2.28;1.10;;;20.10;45.30;;;;;;7710709;23;20360;-64
2021/04/07 06:42:44;;;;;;;4.15;1.10;;;20.10;45.60;;;;;;7710525;23;19997;-64
2021/04/07 06:45:45;;;;;;;7.03;1.80;;;20.20;45.40;;;;;;7711548;23;20001;-64
2021/04/07 06:48:47;;;;;;;2.17;1.25;;;20.30;45.30;;;;;;7709446;23;21005;-64
2021/04/07 06:51:52;;;;;;;2.42;1.33;;;20.40;45.20;;;;;;7711144;23;20032;-63
2021/04/07 06:54:54;;;;;;;6.78;1.40;;;20.40;45.30;;;;;;7711458;23;20080;-64
2021/04/07 06:57:55;;;;;;;1.67;1.08;;;20.50;45.10;;;;;;7711502;23;20004;-65
2021/04/07 07:00:55;;;;;;;4.90;1.27;;;20.50;45.60;;;;;;7711794;23;20011;-64
2021/04/07 07:03:56;;;;;;;2.08;1.30;;;20.50;45.10;;;;;;7711178;23;20005;-64
2021/04/07 07:06:57;;;;;;;5.32;1.20;;;20.60;44.80;;;;;;7712305;23;20008;-64
2021/04/07 07:09:58;;;;;;;2.28;1.40;;;20.60;44.60;;;;;;7711013;23;20008;-64
2021/04/07 07:12:59;;;;;;;3.05;1.35;;;20.60;44.60;;;;;;7711037;23;20016;-64
2021/04/07 07:15:59;;;;;;;2.47;1.30;;;20.60;44.40;;;;;;7711517;23;20459;-64
2021/04/07 07:19:00;;;;;;;2.67;1.10;;;20.70;44.60;;;;;;7711860;23;20008;-65
2021/04/07 07:22:06;;;;;;;2.05;1.25;;;20.70;44.50;;;;;;7711560;23;20008;-65
2021/04/07 07:25:08;;;;;;;3.03;1.00;;;20.60;44.40;;;;;;7711421;23;20084;-64
2021/04/07 07:28:08;;;;;;;2.53;1.33;;;20.60;44.40;;;;;;7711180;23;20310;-65
2021/04/07 07:31:26;;;;;;;3.55;1.52;;;20.60;44.50;;;;;;7711186;23;20111;-64
2021/04/07 07:34:27;;;;;;;3.05;1.45;;;20.70;44.60;;;;;;7712204;23;20000;-64
2021/04/07 07:37:28;;;;;;;2.15;1.33;;;20.70;44.60;;;;;;7712053;23;20367;-65
2021/04/07 07:40:28;;;;;;;3.72;1.55;;;20.70;44.60;;;;;;7709943;23;20332;-64
2021/04/07 07:43:29;;;;;;;2.78;1.25;;;20.60;44.40;;;;;;7711112;23;20068;-65
2021/04/07 07:46:31;;;;;;;2.40;1.10;;;20.70;44.60;;;;;;7711392;23;20019;-64
2021/04/07 07:49:32;;;;;;;1.90;1.20;;;20.60;44.50;;;;;;7711861;23;20030;-65
2021/04/07 07:52:34;;;;;;;1.80;1.40;;;20.70;44.50;;;;;;7712787;23;20024;-64
2021/04/07 07:55:38;;;;;;;1.98;1.48;;;20.60;44.50;;;;;;7714216;23;20008;-64
2021/04/07 07:58:49;;;;;;;2.38;1.30;;;20.70;44.60;;;;;;7714321;23;20028;-64
2021/04/07 08:01:49;;;;;;;2.65;1.23;;;20.70;44.50;;;;;;7713008;23;20012;-65
2021/04/07 08:04:50;;;;;;;2.35;1.48;;;20.70;44.50;;;;;;7714065;23;20008;-64
2021/04/07 08:07:52;;;;;;;3.42;1.48;;;20.70;44.50;;;;;;7713520;23;20043;-65
2021/04/07 08:10:57;;;;;;;2.17;1.40;;;20.70;44.50;;;;;;7713913;23;20108;-65
2021/04/07 08:14:00;;;;;;;1.97;1.37;;;20.70;44.50;;;;;;7713762;23;20367;-64
2021/04/07 08:17:01;;;;;;;6.47;1.48;;;20.70;44.50;;;;;;7713320;23;20436;-64
2021/04/07 08:20:07;;;;;;;4.80;1.77;;;20.70;43.80;;;;;;7713425;23;20328;-64
2021/04/07 08:23:09;;;;;;;8.93;2.53;;;20.70;43.10;;;;;;7714063;23;20006;-64
2021/04/07 08:26:10;;;;;;;7.05;2.50;;;20.70;42.00;;;;;;7713616;23;20420;-64
2021/04/07 08:29:11;;;;;;;7.40;2.80;;;20.70;42.00;;;;;;7713315;23;20461;-65
2021/04/07 08:32:11;;;;;;;6.57;2.60;;;20.60;40.40;;;;;;7712480;23;20066;-65
2021/04/07 08:35:13;;;;;;;8.27;2.45;;;20.70;40.10;;;;;;7714155;23;20005;-64
2021/04/07 08:38:14;;;;;;;8.35;2.55;;;20.70;40.20;;;;;;7713419;23;20388;-64
2021/04/07 08:41:22;;;;;;;9.77;2.78;;;20.70;40.20;;;;;;7713428;23;20080;-64
2021/04/07 08:44:23;;;;;;;7.28;2.60;;;20.70;40.40;;;;;;7713340;23;20015;-64
2021/04/07 08:47:34;;;;;;;6.22;2.20;;;20.70;40.70;;;;;;7712212;23;20092;-64
2021/04/07 08:50:35;;;;;;;5.28;2.35;;;20.70;41.00;;;;;;7712547;23;20012;-64
2021/04/07 08:53:44;;;;;;;7.88;2.58;;;20.70;41.70;;;;;;7712460;23;20043;-64
2021/04/07 08:56:52;;;;;;;7.82;2.45;;;20.70;41.20;;;;;;7710743;23;20387;-64
2021/04/07 08:59:54;;;;;;;7.85;2.40;;;20.70;41.30;;;;;;7710765;23;20100;-65
2021/04/07 09:02:57;;;;;;;6.18;2.47;;;20.70;41.50;;;;;;7710019;23;20032;-64
2021/04/07 09:05:58;;;;;;;6.57;2.65;;;20.70;41.50;;;;;;7712402;23;20005;-64
2021/04/07 09:08:58;;;;;;;4.22;1.90;;;20.70;41.70;;;;;;7713312;23;20027;-65
2021/04/07 09:12:00;;;;;;;4.65;2.08;;;20.70;41.80;;;;;;7712827;23;20047;-64
2021/04/07 09:15:20;;;;;;;6.32;2.50;;;20.70;41.80;;;;;;7713291;23;20008;-65
2021/04/07 09:18:39;;;;;;;4.32;2.03;;;20.70;41.90;;;;;;7713332;23;20004;-64
2021/04/07 09:21:40;;;;;;;8.18;2.00;;;20.70;41.90;;;;;;7712245;23;20062;-65
2021/04/07 09:24:44;;;;;;;5.35;2.13;;;20.70;42.00;;;;;;7712797;23;20302;-65
2021/04/07 09:27:44;;;;;;;5.57;2.25;;;20.70;42.10;;;;;;7711952;23;20440;-64
2021/04/07 09:30:47;;;;;;;4.13;2.17;;;20.80;42.30;;;;;;7712423;23;20008;-65
2021/04/07 09:33:54;;;;;;;4.55;2.00;;;20.80;42.30;;;;;;7710562;23;20032;-64
2021/04/07 09:36:54;;;;;;;8.00;2.17;;;20.80;42.40;;;;;;7707452;23;20112;-65
2021/04/07 09:39:56;;;;;;;7.78;2.47;;;20.70;42.30;;;;;;7709117;23;20013;-65
2021/04/07 09:42:57;;;;;;;5.25;1.90;;;20.70;42.30;;;;;;7709911;23;20008;-65
2021/04/07 09:45:58;;;;;;;3.53;1.63;;;20.70;42.30;;;;;;7709469;23;20004;-65
2021/04/07 09:49:00;;;;;;;3.05;1.67;;;20.70;42.40;;;;;;7711008;23;20071;-64
2021/04/07 09:52:01;;;;;;;5.28;1.92;;;20.80;42.50;;;;;;7711613;23;20013;-65
2021/04/07 09:55:02;;;;;;;4.30;2.03;;;20.80;42.50;;;;;;7710909;23;19997;-64
2021/04/07 09:58:03;;;;;;;4.63;2.13;;;20.70;42.50;;;;;;7711062;23;20015;-65
2021/04/07 10:01:04;;;;;;;3.90;2.28;;;20.80;42.50;;;;;;7711619;23;20028;-64
2021/04/07 10:04:05;;;;;;;4.10;1.63;;;20.70;42.50;;;;;;7710772;23;20527;-64
2021/04/07 10:07:13;;;;;;;5.93;2.00;;;20.80;43.00;;;;;;7710715;23;20015;-63
2021/04/07 10:10:14;;;;;;;5.15;2.05;;;20.90;42.80;;;;;;7710959;23;20447;-64
2021/04/07 10:13:16;;;;;;;4.85;1.92;;;20.90;42.80;;;;;;7710554;23;20201;-64
2021/04/07 10:16:17;;;;;;;7.50;1.95;;;20.90;42.90;;;;;;7710877;23;20008;-64
2021/04/07 10:19:18;;;;;;;3.92;1.70;;;20.90;42.70;;;;;;7711281;23;20058;-64
2021/04/07 10:22:26;;;;;;;9.43;2.00;;;20.90;42.70;;;;;;7711216;23;20012;-66
2021/04/07 10:25:27;;;;;;;3.75;1.90;;;20.90;42.70;;;;;;7711526;23;20004;-65
2021/04/07 10:28:27;;;;;;;4.43;1.85;;;20.90;42.60;;;;;;7710424;23;20005;-65
2021/04/07 10:31:29;;;;;;;4.22;1.80;;;20.80;42.60;;;;;;7710753;23;20452;-65
2021/04/07 10:34:34;;;;;;;2.95;1.67;;;20.90;42.70;;;;;;7710970;23;20005;-65
2021/04/07 10:37:36;;;;;;;3.83;1.40;;;20.80;42.70;;;;;;7711359;23;20004;-64
2021/04/07 10:40:40;;;;;;;5.25;1.65;;;20.80;42.70;;;;;;7710872;23;20075;-64
2021/04/07 10:43:43;;;;;;;2.53;1.83;;;20.80;42.70;;;;;;7711157;23;20008;-63
2021/04/07 10:46:43;;;;;;;3.40;1.55;;;20.80;42.70;;;;;;7709622;23;20428;-65
2021/04/07 10:49:54;;;;;;;3.45;1.67;;;20.80;42.80;;;;;;7709913;23;20027;-65
2021/04/07 10:52:56;;;;;;;3.10;1.77;;;20.80;42.80;;;;;;7710899;23;20015;-65
2021/04/07 10:55:59;;;;;;;4.18;1.88;;;20.90;42.90;;;;;;7711188;23;20004;-64
2021/04/07 10:59:02;;;;;;;3.85;1.58;;;20.90;42.90;;;;;;7709566;23;20462;-63
2021/04/07 11:02:14;;;;;;;4.15;1.50;;;20.90;42.90;;;;;;7710142;23;20409;-64
2021/04/07 11:05:17;;;;;;;3.80;1.95;;;20.90;43.00;;;;;;7710587;23;20013;-65
2021/04/07 11:08:18;;;;;;;6.10;1.55;;;20.90;43.20;;;;;;7710479;23;20332;-64
2021/04/07 11:11:25;;;;;;;5.25;1.50;;;21.00;43.30;;;;;;7708672;23;20020;-64
2021/04/07 11:14:26;;;;;;;3.33;1.58;;;21.00;43.00;;;;;;7710056;23;20462;-64
2021/04/07 11:17:27;;;;;;;4.03;1.45;;;21.00;42.90;;;;;;7709381;23;20009;-64
2021/04/07 11:20:28;;;;;;;3.80;1.80;;;21.00;42.90;;;;;;7709889;23;20000;-64
2021/04/07 11:23:29;;;;;;;6.65;1.67;;;20.90;42.90;;;;;;7709592;23;20012;-64
2021/04/07 11:26:30;;;;;;;5.50;1.45;;;21.00;42.90;;;;;;7709975;23;20004;-65
2021/04/07 11:29:30;;;;;;;8.70;1.90;;;20.90;42.90;;;;;;7710451;23;20000;-64
2021/04/07 11:32:34;;;;;;;5.50;1.67;;;21.00;43.50;;;;;;7710249;23;20015;-64
2021/04/07 11:35:43;;;;;;;5.30;1.83;;;21.10;43.20;;;;;;7710131;23;20446;-63
2021/04/07 11:38:57;;;;;;;4.70;1.85;;;21.10;43.00;;;;;;7710929;23;20004;-66
2021/04/07 11:42:05;;;;;;;5.68;1.73;;;21.10;43.00;;;;;;7712081;23;20007;-66
2021/04/07 11:45:06;;;;;;;9.38;2.20;;;21.10;42.90;;;;;;7712367;23;20007;-66
2021/04/07 11:48:08;;;;;;;7.55;2.00;;;21.10;43.00;;;;;;7710643;23;20016;-66
2021/04/07 11:51:09;;;;;;;8.32;2.00;;;21.00;42.90;;;;;;7710396;23;20004;-66
2021/04/07 11:54:11;;;;;;;4.68;1.85;;;21.00;43.00;;;;;;7711182;23;20005;-66
2021/04/07 11:57:12;;;;;;;6.07;2.08;;;21.00;42.90;;;;;;7710873;23;20012;-66
2021/04/07 12:00:14;;;;;;;7.10;2.60;;;21.00;41.90;;;;;;7710462;23;20004;-66
2021/04/07 12:03:15;;;;;;;6.80;2.50;;;21.00;41.00;;;;;;7710303;23;20039;-65
2021/04/07 12:06:15;;;;;;;5.15;1.92;;;20.90;39.90;;;;;;7710928;23;20488;-66
2021/04/07 12:09:16;;;;;;;8.15;2.35;;;20.90;39.30;;;;;;7709906;23;20008;-66
2021/04/07 12:12:16;;;;;;;9.10;2.47;;;20.90;39.00;;;;;;7707968;23;20143;-66
2021/04/07 12:15:17;;;;;;;6.63;1.90;;;20.90;38.10;;;;;;7710876;23;20336;-66
2021/04/07 12:18:18;;;;;;;6.30;1.80;;;20.90;37.80;;;;;;7711101;23;20007;-66
2021/04/07 12:21:19;;;;;;;5.45;1.80;;;20.90;38.00;;;;;;7710542;23;20043;-66
2021/04/07 12:24:20;;;;;;;4.22;1.58;;;20.90;38.10;;;;;;7709859;23;20004;-65
2021/04/07 12:27:20;;;;;;;5.20;1.70;;;21.00;39.00;;;;;;7708769;23;20073;-65
2021/04/07 12:30:22;;;;;;;3.28;1.38;;;21.00;38.60;;;;;;7710906;23;20043;-65
2021/04/07 12:33:28;;;;;;;7.47;1.85;;;21.10;39.20;;;;;;7710188;23;20039;-66
2021/04/07 12:36:31;;;;;;;6.63;1.92;;;21.10;39.50;;;;;;7709865;23;20001;-66
2021/04/07 12:39:34;;;;;;;5.60;2.00;;;21.20;39.30;;;;;;7712032;23;20058;-69
2021/04/07 12:42:34;;;;;;;3.97;1.45;;;21.30;39.20;;;;;;7712795;23;20000;-68
2021/04/07 12:45:35;;;;;;;6.78;1.70;;;21.30;39.70;;;;;;7712513;23;20007;-67
2021/04/07 12:48:36;;;;;;;7.55;1.70;;;21.40;39.50;;;;;;7712413;23;20044;-69
2021/04/07 12:51:36;;;;;;;5.75;1.55;;;21.40;39.60;;;;;;7712987;23;20017;-68
2021/04/07 12:54:37;;;;;;;2.30;1.25;;;21.40;39.60;;;;;;7712487;23;20000;-68
2021/04/07 12:57:37;;;;;;;10.98;2.83;;;21.40;39.70;;;;;;7709896;23;20368;-67
2021/04/07 13:00:38;;;;;;;17.88;3.47;;;21.40;40.90;;;;;;7711025;23;20004;-69
2021/04/07 13:03:39;;;;;;;9.88;2.80;;;21.30;40.80;;;;;;7711039;23;20005;-68
2021/04/07 13:06:39;;;;;;;12.15;3.28;;;21.30;40.60;;;;;;7711071;23;20424;-67
2021/04/07 13:09:40;;;;;;;10.80;3.20;;;21.40;40.60;;;;;;7712321;23;20036;-68
2021/04/07 13:12:40;;;;;;;8.52;3.00;;;21.40;40.60;;;;;;7709499;23;20009;-68
2021/04/07 13:15:41;;;;;;;12.57;3.47;;;21.30;40.60;;;;;;7712342;23;20012;-67
2021/04/07 13:18:42;;;;;;;10.45;3.20;;;21.40;40.60;;;;;;7711422;23;20007;-69
2021/04/07 13:21:42;;;;;;;13.50;3.28;;;21.40;40.70;;;;;;7710147;23;20008;-70
2021/04/07 13:24:43;;;;;;;7.65;2.70;;;21.40;40.90;;;;;;7710908;23;20371;-69
2021/04/07 13:27:43;;;;;;;9.48;3.15;;;21.50;40.50;;;;;;7709787;23;20039;-68
2021/04/07 13:30:45;;;;;;;13.95;2.88;;;21.60;40.60;;;;;;7711816;23;20040;-68
2021/04/07 13:33:50;;;;;;;8.57;2.33;;;21.60;40.70;;;;;;7711460;23;20001;-68
2021/04/07 13:36:59;;;;;;;11.20;3.00;;;21.60;40.60;;;;;;7711136;23;20059;-68
2021/04/07 13:40:07;;;;;;;18.52;2.80;;;21.60;40.90;;;;;;7710636;23;20324;-69
2021/04/07 13:43:08;;;;;;;11.82;2.92;;;21.60;40.90;;;;;;7711363;23;20386;-68
2021/04/07 13:46:08;;;;;;;9.95;2.70;;;21.60;41.10;;;;;;7709752;23;20058;-69
2021/04/07 13:49:09;;;;;;;11.32;2.65;;;21.70;40.80;;;;;;7710521;23;20021;-69
2021/04/07 13:52:10;;;;;;;13.77;3.25;;;21.70;40.80;;;;;;7710357;23;20019;-69
2021/04/07 13:55:11;;;;;;;14.68;3.65;;;21.80;41.00;;;;;;7711353;23;20447;-69
2021/04/07 13:58:11;;;;;;;15.68;3.45;;;21.80;40.70;;;;;;7711109;23;20001;-67
2021/04/07 14:01:15;;;;;;;10.05;3.03;;;21.80;39.40;;;;;;7712207;23;20059;-68
2021/04/07 14:04:16;;;;;;;8.80;2.95;;;21.70;38.30;;;;;;7710644;23;20005;-68
2021/04/07 14:07:16;;;;;;;9.32;2.35;;;21.60;37.40;;;;;;7709700;23;20463;-68
2021/04/07 14:10:19;;;;;;;7.65;2.83;;;21.60;36.70;;;;;;7711189;23;20001;-68
2021/04/07 14:13:19;;;;;;;17.33;2.75;;;21.60;36.30;;;;;;7710635;23;20494;-68
2021/04/07 14:16:20;;;;;;;8.10;2.08;;;21.50;37.80;;;;;;7710117;23;20005;-68
2021/04/07 14:19:21;;;;;;;9.07;1.98;;;21.40;37.30;;;;;;7710912;23;20004;-69
2021/04/07 14:22:21;;;;;;;6.30;1.92;;;21.40;37.30;;;;;;7710946;23;20023;-67
2021/04/07 14:25:25;;;;;;;6.00;1.92;;;21.30;37.50;;;;;;7710992;23;20027;-67
2021/04/07 14:28:26;;;;;;;4.50;1.80;;;21.30;37.80;;;;;;7709354;23;20031;-66
2021/04/07 14:31:26;;;;;;;5.30;2.05;;;21.30;37.90;;;;;;7710325;23;20459;-66
2021/04/07 14:34:30;;;;;;;10.30;3.00;;;21.40;38.10;;;;;;7709645;23;20004;-67
2021/04/07 14:37:31;;;;;;;10.32;2.50;;;21.50;37.90;;;;;;7710218;23;20340;-67
2021/04/07 14:40:32;;;;;;;9.45;2.45;;;21.60;37.90;;;;;;7709749;23;20004;-66
2021/04/07 14:43:33;;;;;;;10.93;3.33;;;21.70;38.10;;;;;;7710473;23;20016;-67
2021/04/07 14:46:34;;;;;;;11.18;2.75;;;21.70;38.00;;;;;;7710976;23;20023;-66
2021/04/07 14:49:34;;;;;;;12.85;2.85;;;21.70;38.70;;;;;;7709686;23;20017;-66
2021/04/07 14:52:35;;;;;;;8.07;2.45;;;21.70;38.20;;;;;;7709381;23;20020;-66
2021/04/07 14:55:35;;;;;;;14.77;2.33;;;21.70;38.60;;;;;;7711074;23;20523;-67
2021/04/07 14:58:36;;;;;;;14.35;2.80;;;21.70;38.80;;;;;;7710216;23;20004;-67
2021/04/07 15:01:37;;;;;;;19.25;2.45;;;21.80;39.20;;;;;;7710030;23;20009;-67
2021/04/07 15:04:38;;;;;;;12.80;2.67;;;21.80;38.10;;;;;;7709375;23;20005;-65
2021/04/07 15:07:38;;;;;;;6.65;2.70;;;21.80;36.80;;;;;;7711072;23;20031;-66
2021/04/07 15:10:39;;;;;;;6.55;2.58;;;21.70;36.10;;;;;;7710349;23;20040;-67
2021/04/07 15:13:40;;;;;;;8.40;3.05;;;21.70;35.10;;;;;;7710751;23;20001;-65
2021/04/07 15:16:40;;;;;;;7.57;2.85;;;21.70;34.80;;;;;;7709964;23;20035;-66
2021/04/07 15:19:41;;;;;;;13.13;3.25;;;21.70;34.60;;;;;;7710548;23;20012;-66
2021/04/07 15:22:41;;;;;;;12.32;3.00;;;21.60;34.40;;;;;;7710515;23;20068;-66
2021/04/07 15:25:51;;;;;;;6.88;2.80;;;21.60;34.00;;;;;;7710484;23;20355;-66
2021/04/07 15:28:54;;;;;;;6.13;3.15;;;21.50;33.70;;;;;;7709977;23;20440;-66
2021/04/07 15:31:55;;;;;;;8.35;2.92;;;21.50;33.50;;;;;;7710706;23;20012;-66
2021/04/07 15:34:55;;;;;;;13.73;3.00;;;21.50;33.30;;;;;;7710258;23;20032;-68
2021/04/07 15:37:56;;;;;;;8.63;2.90;;;21.50;33.30;;;;;;7709744;23;20151;-66
2021/04/07 15:40:59;;;;;;;8.18;2.63;;;21.50;33.20;;;;;;7708311;23;20317;-66
2021/04/07 15:43:59;;;;;;;7.32;2.55;;;21.50;33.00;;;;;;7711091;23;20483;-66
2021/04/07 15:47:00;;;;;;;6.60;2.10;;;21.50;32.80;;;;;;7711003;23;20083;-66
2021/04/07 15:50:01;;;;;;;5.72;2.40;;;21.40;34.60;;;;;;7710393;23;20031;-66